^^
Meteo Knjazevac Station Historical Data
Daily Summary for March 11, 2021 Units:  Both    English   Metric
Daily Weekly Monthly Yearly Custom
  High: Low: Average:
Temperature: 84.7 °F /  29.3 °C 55.2 °F /  12.9 °C 63.7 °F /  17.6 °C
Dew Point: 65.2 °F /  18.4 °C 51.1 °F /  10.6 °C 55.6 °F /  13.1 °C
Humidity: 88% 51% 76%
Wind Speed: 3mph /  4.8km/h - 0.8mph /  1.3km/h
Wind Gust: 9mph /  14.5km/h - -
Wind- - South
Pressure: 30.06 in /  1017.8 hPa 30.01 in /  1016.1 hPa -
Precipitation: 0.00 in /  0 mm    
Historical Graphs
 
 
Tabular Data for March 11, 2021
Time Temperature Dew Point Pressure Wind Wind Speed Wind Gust Humidity Rainfall Rate (Hourly) solar Conditions
00:00 66 °F /  18.9 °C 56.7 °F /  13.7 °C 30.04in /  1017.2hPa Calm   3mph /  4.8km/h 72% 0.00in /  0mm 0 W/m2
00:10 65.8 °F /  18.8 °C 56.9 °F /  13.8 °C 30.04in /  1017.2hPa WNW 1mph /  1.6km/h 2mph /  3.2km/h 73% 0.00in /  0mm 0 W/m2
00:20 64.9 °F /  18.3 °C 56.5 °F /  13.6 °C 30.04in /  1017.2hPa Calm   2mph /  3.2km/h 74% 0.00in /  0mm 0 W/m2
00:30 64.6 °F /  18.1 °C 56.5 °F /  13.6 °C 30.03in /  1016.8hPa Calm   1mph /  1.6km/h 75% 0.00in /  0mm 0 W/m2
00:40 64 °F /  17.8 °C 55.9 °F /  13.3 °C 30.03in /  1016.8hPa SW 1mph /  1.6km/h 3mph /  4.8km/h 75% 0.00in /  0mm 0 W/m2
00:50 63.3 °F /  17.4 °C 55.3 °F /  12.9 °C 30.04in /  1017.2hPa West 2mph /  3.2km/h 5mph /  8km/h 75% 0.00in /  0mm 0 W/m2
01:00 63.1 °F /  17.3 °C 54.7 °F /  12.6 °C 30.03in /  1016.8hPa WNW 1mph /  1.6km/h 3mph /  4.8km/h 74% 0.00in /  0mm 0 W/m2
01:10 63 °F /  17.2 °C 54.9 °F /  12.7 °C 30.03in /  1016.8hPa West 1mph /  1.6km/h 3mph /  4.8km/h 75% 0.00in /  0mm 0 W/m2
01:20 62.6 °F /  17 °C 54.6 °F /  12.6 °C 30.03in /  1016.8hPa Calm   2mph /  3.2km/h 75% 0.00in /  0mm 0 W/m2
01:30 62.6 °F /  17 °C 54.6 °F /  12.6 °C 30.03in /  1016.8hPa Calm   2mph /  3.2km/h 75% 0.00in /  0mm 0 W/m2
01:40 62.1 °F /  16.7 °C 54.8 °F /  12.7 °C 30.03in /  1016.8hPa WSW 1mph /  1.6km/h 2mph /  3.2km/h 77% 0.00in /  0mm 0 W/m2
01:50 61.4 °F /  16.3 °C 54.5 °F /  12.5 °C 30.03in /  1016.8hPa WSW 2mph /  3.2km/h 3mph /  4.8km/h 78% 0.00in /  0mm 0 W/m2
02:00 60.6 °F /  15.9 °C 53.7 °F /  12.1 °C 30.03in /  1016.8hPa West 2mph /  3.2km/h 4mph /  6.4km/h 78% 0.00in /  0mm 0 W/m2
02:10 60.3 °F /  15.7 °C 53.4 °F /  11.9 °C 30.03in /  1016.8hPa West 1mph /  1.6km/h 3mph /  4.8km/h 78% 0.00in /  0mm 0 W/m2
02:20 60.1 °F /  15.6 °C 53.2 °F /  11.8 °C 30.03in /  1016.8hPa WNW 1mph /  1.6km/h 2mph /  3.2km/h 78% 0.00in /  0mm 0 W/m2
02:30 59.9 °F /  15.5 °C 53 °F /  11.7 °C 30.03in /  1016.8hPa Calm   2mph /  3.2km/h 78% 0.00in /  0mm 0 W/m2
02:40 59.6 °F /  15.3 °C 53.1 °F /  11.7 °C 30.03in /  1016.8hPa Calm   2mph /  3.2km/h 79% 0.00in /  0mm 0 W/m2
02:50 59.7 °F /  15.4 °C 53.2 °F /  11.8 °C 30.03in /  1016.8hPa Calm   2mph /  3.2km/h 79% 0.00in /  0mm 0 W/m2
03:00 59.4 °F /  15.2 °C 53.2 °F /  11.8 °C 30.03in /  1016.8hPa Calm   2mph /  3.2km/h 80% 0.00in /  0mm 0 W/m2
03:10 59.3 °F /  15.2 °C 53.1 °F /  11.7 °C 30.03in /  1016.8hPa Calm   1mph /  1.6km/h 80% 0.00in /  0mm 0 W/m2
03:20 58.7 °F /  14.8 °C 52.6 °F /  11.4 °C 30.02in /  1016.5hPa Calm   2mph /  3.2km/h 80% 0.00in /  0mm 0 W/m2
03:30 58.3 °F /  14.6 °C 52.5 °F /  11.4 °C 30.03in /  1016.8hPa Calm   1mph /  1.6km/h 81% 0.00in /  0mm 0 W/m2
03:40 57.7 °F /  14.3 °C 52.6 °F /  11.4 °C 30.03in /  1016.8hPa West 1mph /  1.6km/h 2mph /  3.2km/h 83% 0.00in /  0mm 0 W/m2
03:50 57.6 °F /  14.2 °C 52.4 °F /  11.3 °C 30.02in /  1016.5hPa Calm   3mph /  4.8km/h 83% 0.00in /  0mm 0 W/m2
04:00 57.2 °F /  14 °C 52.1 °F /  11.2 °C 30.03in /  1016.8hPa West 1mph /  1.6km/h 2mph /  3.2km/h 83% 0.00in /  0mm 0 W/m2
04:10 57.2 °F /  14 °C 52.1 °F /  11.2 °C 30.03in /  1016.8hPa NNW 1mph /  1.6km/h 2mph /  3.2km/h 83% 0.00in /  0mm 0 W/m2
04:20 57 °F /  13.9 °C 52.2 °F /  11.2 °C 30.03in /  1016.8hPa Calm   2mph /  3.2km/h 84% 0.00in /  0mm 0 W/m2
04:30 56.8 °F /  13.8 °C 52.1 °F /  11.2 °C 30.03in /  1016.8hPa WNW 1mph /  1.6km/h 2mph /  3.2km/h 84% 0.00in /  0mm 0 W/m2
04:40 56.7 °F /  13.7 °C 51.9 °F /  11.1 °C 30.04in /  1017.2hPa Calm   2mph /  3.2km/h 84% 0.00in /  0mm 0 W/m2
04:50 56.5 °F /  13.6 °C 52 °F /  11.1 °C 30.04in /  1017.2hPa North 1mph /  1.6km/h 4mph /  6.4km/h 85% 0.00in /  0mm 0 W/m2
05:00 56.2 °F /  13.4 °C 51.7 °F /  10.9 °C 30.04in /  1017.2hPa Calm   2mph /  3.2km/h 85% 0.00in /  0mm 3 W/m2
05:10 55.9 °F /  13.3 °C 51.5 °F /  10.8 °C 30.04in /  1017.2hPa Calm   1mph /  1.6km/h 85% 0.00in /  0mm 8 W/m2
05:20 55.6 °F /  13.1 °C 51.1 °F /  10.6 °C 30.04in /  1017.2hPa North 2mph /  3.2km/h 3mph /  4.8km/h 85% 0.00in /  0mm 16 W/m2
05:30 55.6 °F /  13.1 °C 51.5 °F /  10.8 °C 30.04in /  1017.2hPa Calm   2mph /  3.2km/h 86% 0.00in /  0mm 24 W/m2
05:40 55.4 °F /  13 °C 51.3 °F /  10.7 °C 30.05in /  1017.5hPa WNW 1mph /  1.6km/h 2mph /  3.2km/h 86% 0.00in /  0mm 32 W/m2
05:50 55.2 °F /  12.9 °C 51.4 °F /  10.8 °C 30.05in /  1017.5hPa Calm   2mph /  3.2km/h 87% 0.00in /  0mm 41 W/m2
06:00 55.2 °F /  12.9 °C 51.1 °F /  10.6 °C 30.05in /  1017.5hPa Calm   2mph /  3.2km/h 86% 0.00in /  0mm 49 W/m2
06:10 55.4 °F /  13 °C 51.6 °F /  10.9 °C 30.05in /  1017.5hPa Calm   2mph /  3.2km/h 87% 0.00in /  0mm 95 W/m2
06:20 55.6 °F /  13.1 °C 51.5 °F /  10.8 °C 30.05in /  1017.5hPa Calm   1mph /  1.6km/h 86% 0.00in /  0mm 116 W/m2
06:30 55.8 °F /  13.2 °C 51.6 °F /  10.9 °C 30.05in /  1017.5hPa Calm   2mph /  3.2km/h 86% 0.00in /  0mm 145 W/m2
06:40 55.9 °F /  13.3 °C 52.1 °F /  11.2 °C 30.05in /  1017.5hPa Calm   1mph /  1.6km/h 87% 0.00in /  0mm 172 W/m2
06:50 56.4 °F /  13.6 °C 52.9 °F /  11.6 °C 30.06in /  1017.8hPa West 1mph /  1.6km/h 2mph /  3.2km/h 88% 0.00in /  0mm 202 W/m2
07:00 56.8 °F /  13.8 °C 52.7 °F /  11.5 °C 30.06in /  1017.8hPa NNW 1mph /  1.6km/h 3mph /  4.8km/h 86% 0.00in /  0mm 231 W/m2
07:10 57.6 °F /  14.2 °C 53.4 °F /  11.9 °C 30.06in /  1017.8hPa West 1mph /  1.6km/h 3mph /  4.8km/h 86% 0.00in /  0mm 269 W/m2
07:20 58.1 °F /  14.5 °C 53.3 °F /  11.8 °C 30.06in /  1017.8hPa Calm   2mph /  3.2km/h 84% 0.00in /  0mm 302 W/m2
07:30 59.1 °F /  15.1 °C 54 °F /  12.2 °C 30.05in /  1017.5hPa West 1mph /  1.6km/h 3mph /  4.8km/h 83% 0.00in /  0mm 333 W/m2
07:40 59.9 °F /  15.5 °C 54.1 °F /  12.3 °C 30.05in /  1017.5hPa Calm   2mph /  3.2km/h 81% 0.00in /  0mm 367 W/m2
07:50 60.8 °F /  16 °C 54.6 °F /  12.6 °C 30.05in /  1017.5hPa Calm   2mph /  3.2km/h 80% 0.00in /  0mm 399 W/m2
08:00 61.8 °F /  16.6 °C 55.2 °F /  12.9 °C 30.05in /  1017.5hPa WSW 1mph /  1.6km/h 3mph /  4.8km/h 79% 0.00in /  0mm 437 W/m2
08:10 62.5 °F /  16.9 °C 55.6 °F /  13.1 °C 30.05in /  1017.5hPa Calm   2mph /  3.2km/h 78% 0.00in /  0mm 481 W/m2
08:20 63.6 °F /  17.6 °C 56.6 °F /  13.7 °C 30.05in /  1017.5hPa SSE 1mph /  1.6km/h 4mph /  6.4km/h 78% 0.00in /  0mm 520 W/m2
08:30 64.9 °F /  18.3 °C 57.5 °F /  14.2 °C 30.05in /  1017.5hPa ENE 2mph /  3.2km/h 6mph /  9.7km/h 77% 0.00in /  0mm 555 W/m2
08:40 66 °F /  18.9 °C 57.5 °F /  14.2 °C 30.04in /  1017.2hPa NNE 1mph /  1.6km/h 6mph /  9.7km/h 74% 0.00in /  0mm 590 W/m2
08:50 67 °F /  19.4 °C 57.7 °F /  14.3 °C 30.04in /  1017.2hPa Calm   6mph /  9.7km/h 72% 0.00in /  0mm 620 W/m2
09:00 68.8 °F /  20.4 °C 58.2 °F /  14.6 °C 30.04in /  1017.2hPa North 2mph /  3.2km/h 5mph /  8km/h 69% 0.00in /  0mm 650 W/m2
09:10 71.3 °F /  21.8 °C 60.2 °F /  15.7 °C 30.04in /  1017.2hPa NNE 2mph /  3.2km/h 7mph /  11.3km/h 68% 0.00in /  0mm 677 W/m2
09:20 73.2 °F /  22.9 °C 60.2 °F /  15.7 °C 30.04in /  1017.2hPa NE 2mph /  3.2km/h 7mph /  11.3km/h 64% 0.00in /  0mm 702 W/m2
09:30 74.8 °F /  23.8 °C 61.4 °F /  16.3 °C 30.04in /  1017.2hPa NNE 3mph /  4.8km/h 7mph /  11.3km/h 63% 0.00in /  0mm 727 W/m2
09:40 75.9 °F /  24.4 °C 62.4 °F /  16.9 °C 30.04in /  1017.2hPa NNE 2mph /  3.2km/h 7mph /  11.3km/h 63% 0.00in /  0mm 751 W/m2
09:50 76.9 °F /  24.9 °C 62.5 °F /  16.9 °C 30.04in /  1017.2hPa NNW 1mph /  1.6km/h 4mph /  6.4km/h 61% 0.00in /  0mm 774 W/m2
10:00 78.2 °F /  25.7 °C 63.2 °F /  17.3 °C 30.04in /  1017.2hPa NNW 1mph /  1.6km/h 5mph /  8km/h 60% 0.00in /  0mm 796 W/m2
10:10 79.2 °F /  26.2 °C 63.6 °F /  17.6 °C 30.03in /  1016.8hPa NNE 1mph /  1.6km/h 6mph /  9.7km/h 59% 0.00in /  0mm 817 W/m2
10:20 80 °F /  26.7 °C 63.9 °F /  17.7 °C 30.03in /  1016.8hPa NE 3mph /  4.8km/h 7mph /  11.3km/h 58% 0.00in /  0mm 836 W/m2
10:30 80.7 °F /  27.1 °C 65.1 °F /  18.4 °C 30.03in /  1016.8hPa NE 1mph /  1.6km/h 9mph /  14.5km/h 59% 0.00in /  0mm 855 W/m2
10:40 82 °F /  27.8 °C 65.2 °F /  18.4 °C 30.03in /  1016.8hPa NNE 2mph /  3.2km/h 6mph /  9.7km/h 57% 0.00in /  0mm 872 W/m2
10:50 82.9 °F /  28.3 °C 64.5 °F /  18.1 °C 30.02in /  1016.5hPa NNE 1mph /  1.6km/h 5mph /  8km/h 54% 0.00in /  0mm 170 W/m2
11:00 83.5 °F /  28.6 °C 64.5 °F /  18.1 °C 30.02in /  1016.5hPa NNE 3mph /  4.8km/h 6mph /  9.7km/h 53% 0.00in /  0mm 902 W/m2
11:10 84 °F /  28.9 °C 63.9 °F /  17.7 °C 30.02in /  1016.5hPa ENE 2mph /  3.2km/h 6mph /  9.7km/h 51% 0.00in /  0mm 915 W/m2
11:20 84.7 °F /  29.3 °C 64.6 °F /  18.1 °C 30.01in /  1016.1hPa ENE 1mph /  1.6km/h 5mph /  8km/h 51% 0.00in /  0mm 916 W/m2
Knjazevac, Serbia
Compliments of Weather Underground - 2 mb